sensor_id;sensor_type;location;lat;lon;timestamp;P1;durP1;ratioP1;P2;durP2;ratioP2
20230;SDS011;10274;49.022;9.338;2022-08-01T00:00:17;2.23;;;2.03;;
20230;SDS011;10274;49.022;9.338;2022-08-01T00:02:44;2.77;;;1.60;;
20230;SDS011;10274;49.022;9.338;2022-08-01T00:05:11;3.03;;;2.10;;
20230;SDS011;10274;49.022;9.338;2022-08-01T00:07:39;2.33;;;2.13;;
20230;SDS011;10274;49.022;9.338;2022-08-01T00:10:07;2.63;;;2.17;;
20230;SDS011;10274;49.022;9.338;2022-08-01T00:12:35;3.00;;;2.23;;
20230;SDS011;10274;49.022;9.338;2022-08-01T00:15:02;2.20;;;1.93;;
20230;SDS011;10274;49.022;9.338;2022-08-01T00:17:30;2.67;;;2.00;;
20230;SDS011;10274;49.022;9.338;2022-08-01T00:19:57;2.27;;;2.07;;
20230;SDS011;10274;49.022;9.338;2022-08-01T00:22:24;2.50;;;2.03;;
20230;SDS011;10274;49.022;9.338;2022-08-01T00:24:52;2.33;;;2.13;;
20230;SDS011;10274;49.022;9.338;2022-08-01T00:27:18;2.80;;;2.10;;
20230;SDS011;10274;49.022;9.338;2022-08-01T00:29:45;2.30;;;2.10;;
20230;SDS011;10274;49.022;9.338;2022-08-01T00:32:12;2.80;;;2.10;;
20230;SDS011;10274;49.022;9.338;2022-08-01T00:34:38;2.00;;;1.87;;
20230;SDS011;10274;49.022;9.338;2022-08-01T00:37:05;3.30;;;2.10;;
20230;SDS011;10274;49.022;9.338;2022-08-01T00:39:32;2.63;;;2.43;;
20230;SDS011;10274;49.022;9.338;2022-08-01T00:42:05;2.83;;;2.13;;
20230;SDS011;10274;49.022;9.338;2022-08-01T00:44:32;2.40;;;2.20;;
20230;SDS011;10274;49.022;9.338;2022-08-01T00:46:59;2.40;;;2.20;;
20230;SDS011;10274;49.022;9.338;2022-08-01T00:49:25;2.87;;;2.33;;
20230;SDS011;10274;49.022;9.338;2022-08-01T00:51:53;2.47;;;2.20;;
20230;SDS011;10274;49.022;9.338;2022-08-01T00:54:20;2.37;;;2.07;;
20230;SDS011;10274;49.022;9.338;2022-08-01T00:56:46;2.70;;;2.47;;
20230;SDS011;10274;49.022;9.338;2022-08-01T00:59:15;4.07;;;2.73;;
20230;SDS011;10274;49.022;9.338;2022-08-01T01:01:43;3.53;;;2.63;;
20230;SDS011;10274;49.022;9.338;2022-08-01T01:04:10;4.07;;;2.40;;
20230;SDS011;10274;49.022;9.338;2022-08-01T01:06:40;2.50;;;2.30;;
20230;SDS011;10274;49.022;9.338;2022-08-01T01:09:16;3.80;;;2.47;;
20230;SDS011;10274;49.022;9.338;2022-08-01T01:11:52;2.50;;;2.30;;
20230;SDS011;10274;49.022;9.338;2022-08-01T01:14:31;2.50;;;2.30;;
20230;SDS011;10274;49.022;9.338;2022-08-01T01:17:03;3.23;;;2.67;;
20230;SDS011;10274;49.022;9.338;2022-08-01T01:19:33;2.50;;;2.30;;
20230;SDS011;10274;49.022;9.338;2022-08-01T01:22:18;2.50;;;2.30;;
20230;SDS011;10274;49.022;9.338;2022-08-01T01:24:58;2.60;;;2.30;;
20230;SDS011;10274;49.022;9.338;2022-08-01T01:27:36;3.13;;;2.50;;
20230;SDS011;10274;49.022;9.338;2022-08-01T01:30:12;2.73;;;2.47;;
20230;SDS011;10274;49.022;9.338;2022-08-01T01:32:41;5.10;;;2.40;;
20230;SDS011;10274;49.022;9.338;2022-08-01T01:35:13;2.60;;;2.40;;
20230;SDS011;10274;49.022;9.338;2022-08-01T01:37:43;3.57;;;2.70;;
20230;SDS011;10274;49.022;9.338;2022-08-01T01:40:12;2.53;;;2.30;;
20230;SDS011;10274;49.022;9.338;2022-08-01T01:42:41;3.50;;;2.60;;
20230;SDS011;10274;49.022;9.338;2022-08-01T01:45:09;2.57;;;2.37;;
20230;SDS011;10274;49.022;9.338;2022-08-01T01:47:37;3.03;;;2.40;;
20230;SDS011;10274;49.022;9.338;2022-08-01T01:50:06;5.27;;;2.70;;
20230;SDS011;10274;49.022;9.338;2022-08-01T01:52:35;3.00;;;2.30;;
20230;SDS011;10274;49.022;9.338;2022-08-01T01:55:04;3.13;;;2.30;;
20230;SDS011;10274;49.022;9.338;2022-08-01T01:57:33;2.63;;;2.43;;
20230;SDS011;10274;49.022;9.338;2022-08-01T02:00:05;2.90;;;2.60;;
20230;SDS011;10274;49.022;9.338;2022-08-01T02:02:33;2.83;;;2.57;;
20230;SDS011;10274;49.022;9.338;2022-08-01T02:05:03;3.03;;;2.73;;
20230;SDS011;10274;49.022;9.338;2022-08-01T02:07:31;2.70;;;2.50;;
20230;SDS011;10274;49.022;9.338;2022-08-01T02:10:00;2.80;;;2.60;;
20230;SDS011;10274;49.022;9.338;2022-08-01T02:12:29;3.23;;;2.77;;
20230;SDS011;10274;49.022;9.338;2022-08-01T02:15:02;3.20;;;2.90;;
20230;SDS011;10274;49.022;9.338;2022-08-01T02:17:31;2.90;;;2.60;;
20230;SDS011;10274;49.022;9.338;2022-08-01T02:20:01;3.90;;;3.00;;
20230;SDS011;10274;49.022;9.338;2022-08-01T02:22:30;3.30;;;2.70;;
20230;SDS011;10274;49.022;9.338;2022-08-01T02:25:02;3.90;;;3.10;;
20230;SDS011;10274;49.022;9.338;2022-08-01T02:27:33;2.97;;;2.77;;
20230;SDS011;10274;49.022;9.338;2022-08-01T02:30:08;2.90;;;2.60;;
20230;SDS011;10274;49.022;9.338;2022-08-01T02:32:40;2.77;;;2.57;;
20230;SDS011;10274;49.022;9.338;2022-08-01T02:35:11;3.00;;;2.70;;
20230;SDS011;10274;49.022;9.338;2022-08-01T02:37:45;3.27;;;2.80;;
20230;SDS011;10274;49.022;9.338;2022-08-01T02:40:13;3.07;;;2.80;;
20230;SDS011;10274;49.022;9.338;2022-08-01T02:42:42;3.37;;;3.03;;
20230;SDS011;10274;49.022;9.338;2022-08-01T02:45:11;3.07;;;2.87;;
20230;SDS011;10274;49.022;9.338;2022-08-01T02:47:39;3.43;;;2.73;;
20230;SDS011;10274;49.022;9.338;2022-08-01T02:50:08;3.20;;;2.90;;
20230;SDS011;10274;49.022;9.338;2022-08-01T02:52:38;3.37;;;2.70;;
20230;SDS011;10274;49.022;9.338;2022-08-01T02:55:09;3.47;;;3.17;;
20230;SDS011;10274;49.022;9.338;2022-08-01T02:57:37;2.90;;;2.60;;
20230;SDS011;10274;49.022;9.338;2022-08-01T03:00:06;3.70;;;3.00;;
20230;SDS011;10274;49.022;9.338;2022-08-01T03:02:34;3.20;;;2.90;;
20230;SDS011;10274;49.022;9.338;2022-08-01T03:05:02;3.37;;;3.07;;
20230;SDS011;10274;49.022;9.338;2022-08-01T03:07:30;3.03;;;2.80;;
20230;SDS011;10274;49.022;9.338;2022-08-01T03:09:58;3.10;;;2.80;;
20230;SDS011;10274;49.022;9.338;2022-08-01T03:12:27;3.30;;;3.00;;
20230;SDS011;10274;49.022;9.338;2022-08-01T03:14:56;4.50;;;3.10;;
20230;SDS011;10274;49.022;9.338;2022-08-01T03:17:25;3.27;;;2.97;;
20230;SDS011;10274;49.022;9.338;2022-08-01T03:19:53;3.17;;;2.87;;
20230;SDS011;10274;49.022;9.338;2022-08-01T03:22:24;3.50;;;3.20;;
20230;SDS011;10274;49.022;9.338;2022-08-01T03:24:53;3.37;;;3.07;;
20230;SDS011;10274;49.022;9.338;2022-08-01T03:27:22;3.20;;;2.90;;
20230;SDS011;10274;49.022;9.338;2022-08-01T03:29:51;3.00;;;2.70;;
20230;SDS011;10274;49.022;9.338;2022-08-01T03:32:21;3.70;;;2.83;;
20230;SDS011;10274;49.022;9.338;2022-08-01T03:34:49;3.30;;;3.00;;
20230;SDS011;10274;49.022;9.338;2022-08-01T03:37:17;2.87;;;2.67;;
20230;SDS011;10274;49.022;9.338;2022-08-01T03:39:52;3.07;;;2.87;;
20230;SDS011;10274;49.022;9.338;2022-08-01T03:42:24;3.30;;;3.10;;
20230;SDS011;10274;49.022;9.338;2022-08-01T03:44:59;3.40;;;3.10;;
20230;SDS011;10274;49.022;9.338;2022-08-01T03:47:30;4.20;;;2.70;;
20230;SDS011;10274;49.022;9.338;2022-08-01T03:49:59;3.30;;;3.00;;
20230;SDS011;10274;49.022;9.338;2022-08-01T03:52:28;3.63;;;3.10;;
20230;SDS011;10274;49.022;9.338;2022-08-01T03:54:58;3.40;;;2.90;;
20230;SDS011;10274;49.022;9.338;2022-08-01T03:57:27;3.67;;;3.23;;
20230;SDS011;10274;49.022;9.338;2022-08-01T03:59:55;3.17;;;2.87;;
20230;SDS011;10274;49.022;9.338;2022-08-01T04:02:24;3.50;;;3.20;;
20230;SDS011;10274;49.022;9.338;2022-08-01T04:04:52;3.53;;;3.23;;
20230;SDS011;10274;49.022;9.338;2022-08-01T04:07:20;3.67;;;3.20;;
20230;SDS011;10274;49.022;9.338;2022-08-01T04:09:48;4.07;;;3.50;;
20230;SDS011;10274;49.022;9.338;2022-08-01T04:12:15;3.20;;;3.00;;
20230;SDS011;10274;49.022;9.338;2022-08-01T04:14:42;3.73;;;3.00;;
20230;SDS011;10274;49.022;9.338;2022-08-01T04:17:09;3.03;;;2.83;;
20230;SDS011;10274;49.022;9.338;2022-08-01T04:19:37;3.47;;;3.17;;
20230;SDS011;10274;49.022;9.338;2022-08-01T04:22:04;3.17;;;2.97;;
20230;SDS011;10274;49.022;9.338;2022-08-01T04:24:31;3.60;;;3.30;;
20230;SDS011;10274;49.022;9.338;2022-08-01T04:27:01;3.30;;;3.00;;
20230;SDS011;10274;49.022;9.338;2022-08-01T04:29:30;3.33;;;3.03;;
20230;SDS011;10274;49.022;9.338;2022-08-01T04:31:59;3.47;;;3.17;;
20230;SDS011;10274;49.022;9.338;2022-08-01T04:34:28;4.03;;;3.63;;
20230;SDS011;10274;49.022;9.338;2022-08-01T04:36:59;3.70;;;3.40;;
20230;SDS011;10274;49.022;9.338;2022-08-01T04:39:28;3.40;;;3.10;;
20230;SDS011;10274;49.022;9.338;2022-08-01T04:41:58;3.67;;;3.37;;
20230;SDS011;10274;49.022;9.338;2022-08-01T04:44:28;3.60;;;3.30;;
20230;SDS011;10274;49.022;9.338;2022-08-01T04:46:57;3.73;;;3.37;;
20230;SDS011;10274;49.022;9.338;2022-08-01T04:49:25;5.27;;;3.30;;
20230;SDS011;10274;49.022;9.338;2022-08-01T04:51:53;3.50;;;3.20;;
20230;SDS011;10274;49.022;9.338;2022-08-01T04:54:24;4.07;;;3.30;;
20230;SDS011;10274;49.022;9.338;2022-08-01T04:56:52;3.13;;;2.90;;
20230;SDS011;10274;49.022;9.338;2022-08-01T04:59:20;3.77;;;3.17;;
20230;SDS011;10274;49.022;9.338;2022-08-01T05:02:05;3.47;;;3.17;;
20230;SDS011;10274;49.022;9.338;2022-08-01T05:04:33;4.17;;;3.27;;
20230;SDS011;10274;49.022;9.338;2022-08-01T05:07:00;3.63;;;3.33;;
20230;SDS011;10274;49.022;9.338;2022-08-01T05:09:28;3.47;;;3.17;;
20230;SDS011;10274;49.022;9.338;2022-08-01T05:11:55;4.80;;;3.40;;
20230;SDS011;10274;49.022;9.338;2022-08-01T05:14:23;3.50;;;3.20;;
20230;SDS011;10274;49.022;9.338;2022-08-01T05:16:50;4.93;;;3.10;;
20230;SDS011;10274;49.022;9.338;2022-08-01T05:19:17;3.30;;;3.00;;
20230;SDS011;10274;49.022;9.338;2022-08-01T05:21:43;3.30;;;3.00;;
20230;SDS011;10274;49.022;9.338;2022-08-01T05:24:10;3.23;;;2.93;;
20230;SDS011;10274;49.022;9.338;2022-08-01T05:26:39;3.03;;;2.80;;
20230;SDS011;10274;49.022;9.338;2022-08-01T05:29:05;4.43;;;3.33;;
20230;SDS011;10274;49.022;9.338;2022-08-01T05:31:32;5.33;;;3.00;;
20230;SDS011;10274;49.022;9.338;2022-08-01T05:33:59;3.27;;;3.00;;
20230;SDS011;10274;49.022;9.338;2022-08-01T05:36:26;3.70;;;3.40;;
20230;SDS011;10274;49.022;9.338;2022-08-01T05:38:53;3.23;;;3.03;;
20230;SDS011;10274;49.022;9.338;2022-08-01T05:41:20;3.47;;;3.17;;
20230;SDS011;10274;49.022;9.338;2022-08-01T05:43:48;3.40;;;3.10;;
20230;SDS011;10274;49.022;9.338;2022-08-01T05:46:14;3.50;;;3.20;;
20230;SDS011;10274;49.022;9.338;2022-08-01T05:48:41;3.37;;;2.87;;
20230;SDS011;10274;49.022;9.338;2022-08-01T05:51:08;2.73;;;2.50;;
20230;SDS011;10274;49.022;9.338;2022-08-01T05:53:35;3.63;;;2.97;;
20230;SDS011;10274;49.022;9.338;2022-08-01T05:56:01;3.77;;;3.03;;
20230;SDS011;10274;49.022;9.338;2022-08-01T05:58:28;3.63;;;2.93;;
20230;SDS011;10274;49.022;9.338;2022-08-01T06:00:56;3.37;;;2.87;;
20230;SDS011;10274;49.022;9.338;2022-08-01T06:03:24;3.80;;;3.27;;
20230;SDS011;10274;49.022;9.338;2022-08-01T06:05:51;3.03;;;2.70;;
20230;SDS011;10274;49.022;9.338;2022-08-01T06:08:18;3.57;;;3.00;;
20230;SDS011;10274;49.022;9.338;2022-08-01T06:10:44;7.03;;;2.53;;
20230;SDS011;10274;49.022;9.338;2022-08-01T06:13:11;3.17;;;2.80;;
20230;SDS011;10274;49.022;9.338;2022-08-01T06:15:38;3.33;;;2.80;;
20230;SDS011;10274;49.022;9.338;2022-08-01T06:18:06;3.47;;;2.60;;
20230;SDS011;10274;49.022;9.338;2022-08-01T06:20:33;2.83;;;2.50;;
20230;SDS011;10274;49.022;9.338;2022-08-01T06:22:59;2.80;;;2.60;;
20230;SDS011;10274;49.022;9.338;2022-08-01T06:25:26;3.10;;;2.50;;
20230;SDS011;10274;49.022;9.338;2022-08-01T06:27:53;2.73;;;2.53;;
20230;SDS011;10274;49.022;9.338;2022-08-01T06:30:20;3.00;;;2.60;;
20230;SDS011;10274;49.022;9.338;2022-08-01T06:32:46;2.83;;;2.20;;
20230;SDS011;10274;49.022;9.338;2022-08-01T06:35:15;2.80;;;2.47;;
20230;SDS011;10274;49.022;9.338;2022-08-01T06:37:41;4.93;;;2.10;;
20230;SDS011;10274;49.022;9.338;2022-08-01T06:40:10;2.47;;;2.07;;
20230;SDS011;10274;49.022;9.338;2022-08-01T06:42:37;4.47;;;2.27;;
20230;SDS011;10274;49.022;9.338;2022-08-01T06:45:05;5.03;;;2.50;;
20230;SDS011;10274;49.022;9.338;2022-08-01T06:47:33;4.10;;;2.60;;
20230;SDS011;10274;49.022;9.338;2022-08-01T06:49:59;4.97;;;2.10;;
20230;SDS011;10274;49.022;9.338;2022-08-01T06:52:27;2.70;;;2.17;;
20230;SDS011;10274;49.022;9.338;2022-08-01T06:54:54;2.90;;;2.33;;
20230;SDS011;10274;49.022;9.338;2022-08-01T06:57:21;4.10;;;2.10;;
20230;SDS011;10274;49.022;9.338;2022-08-01T06:59:48;3.73;;;2.13;;
20230;SDS011;10274;49.022;9.338;2022-08-01T07:02:14;3.07;;;2.00;;
20230;SDS011;10274;49.022;9.338;2022-08-01T07:04:41;3.43;;;2.00;;
20230;SDS011;10274;49.022;9.338;2022-08-01T07:07:08;2.00;;;1.80;;
20230;SDS011;10274;49.022;9.338;2022-08-01T07:09:36;3.17;;;2.17;;
20230;SDS011;10274;49.022;9.338;2022-08-01T07:12:05;2.03;;;1.77;;
20230;SDS011;10274;49.022;9.338;2022-08-01T07:14:32;5.93;;;1.87;;
20230;SDS011;10274;49.022;9.338;2022-08-01T07:16:59;2.53;;;1.90;;
20230;SDS011;10274;49.022;9.338;2022-08-01T07:19:26;2.00;;;1.80;;
20230;SDS011;10274;49.022;9.338;2022-08-01T07:21:53;2.87;;;1.93;;
20230;SDS011;10274;49.022;9.338;2022-08-01T07:24:19;1.90;;;1.70;;
20230;SDS011;10274;49.022;9.338;2022-08-01T07:26:48;3.90;;;1.67;;
20230;SDS011;10274;49.022;9.338;2022-08-01T07:29:15;1.60;;;1.50;;
20230;SDS011;10274;49.022;9.338;2022-08-01T07:31:41;2.53;;;1.60;;
20230;SDS011;10274;49.022;9.338;2022-08-01T07:34:08;1.90;;;1.47;;
20230;SDS011;10274;49.022;9.338;2022-08-01T07:36:35;2.90;;;1.60;;
20230;SDS011;10274;49.022;9.338;2022-08-01T07:39:02;2.40;;;1.58;;
20230;SDS011;10274;49.022;9.338;2022-08-01T07:41:28;4.22;;;1.60;;
20230;SDS011;10274;49.022;9.338;2022-08-01T07:43:56;3.55;;;1.48;;
20230;SDS011;10274;49.022;9.338;2022-08-01T07:46:23;3.22;;;1.58;;
20230;SDS011;10274;49.022;9.338;2022-08-01T07:48:50;1.80;;;1.30;;
20230;SDS011;10274;49.022;9.338;2022-08-01T07:51:17;1.65;;;1.10;;
20230;SDS011;10274;49.022;9.338;2022-08-01T07:53:43;1.85;;;1.40;;
20230;SDS011;10274;49.022;9.338;2022-08-01T07:56:10;1.55;;;1.40;;
20230;SDS011;10274;49.022;9.338;2022-08-01T07:58:37;1.23;;;1.02;;
20230;SDS011;10274;49.022;9.338;2022-08-01T08:01:05;2.13;;;1.42;;
20230;SDS011;10274;49.022;9.338;2022-08-01T08:03:32;4.72;;;1.17;;
20230;SDS011;10274;49.022;9.338;2022-08-01T08:05:58;2.80;;;1.50;;
20230;SDS011;10274;49.022;9.338;2022-08-01T08:08:25;1.42;;;1.20;;
20230;SDS011;10274;49.022;9.338;2022-08-01T08:10:52;2.35;;;1.38;;
20230;SDS011;10274;49.022;9.338;2022-08-01T08:13:19;1.42;;;1.10;;
20230;SDS011;10274;49.022;9.338;2022-08-01T08:15:45;1.35;;;1.25;;
20230;SDS011;10274;49.022;9.338;2022-08-01T08:18:13;2.28;;;1.50;;
20230;SDS011;10274;49.022;9.338;2022-08-01T08:20:40;2.45;;;1.40;;
20230;SDS011;10274;49.022;9.338;2022-08-01T08:23:07;1.60;;;1.50;;
20230;SDS011;10274;49.022;9.338;2022-08-01T08:25:47;3.92;;;1.60;;
20230;SDS011;10274;49.022;9.338;2022-08-01T08:28:14;2.17;;;1.40;;
20230;SDS011;10274;49.022;9.338;2022-08-01T08:30:41;2.53;;;1.55;;
20230;SDS011;10274;49.022;9.338;2022-08-01T08:33:07;3.22;;;1.70;;
20230;SDS011;10274;49.022;9.338;2022-08-01T08:35:35;1.70;;;1.33;;
20230;SDS011;10274;49.022;9.338;2022-08-01T08:38:05;1.80;;;1.50;;
20230;SDS011;10274;49.022;9.338;2022-08-01T08:40:31;1.90;;;1.40;;
20230;SDS011;10274;49.022;9.338;2022-08-01T08:43:02;2.42;;;1.35;;
20230;SDS011;10274;49.022;9.338;2022-08-01T08:45:30;1.83;;;1.50;;
20230;SDS011;10274;49.022;9.338;2022-08-01T08:47:57;1.83;;;1.40;;
20230;SDS011;10274;49.022;9.338;2022-08-01T08:50:25;1.63;;;1.40;;
20230;SDS011;10274;49.022;9.338;2022-08-01T08:52:54;1.70;;;1.30;;
20230;SDS011;10274;49.022;9.338;2022-08-01T08:55:22;3.72;;;1.40;;
20230;SDS011;10274;49.022;9.338;2022-08-01T08:57:49;1.67;;;1.40;;
20230;SDS011;10274;49.022;9.338;2022-08-01T09:00:16;2.72;;;1.30;;
20230;SDS011;10274;49.022;9.338;2022-08-01T09:02:43;2.08;;;1.20;;
20230;SDS011;10274;49.022;9.338;2022-08-01T09:05:12;2.92;;;1.10;;
20230;SDS011;10274;49.022;9.338;2022-08-01T09:07:39;1.88;;;1.23;;
20230;SDS011;10274;49.022;9.338;2022-08-01T09:10:07;1.50;;;1.40;;
20230;SDS011;10274;49.022;9.338;2022-08-01T09:12:35;1.42;;;1.30;;
20230;SDS011;10274;49.022;9.338;2022-08-01T09:15:03;1.83;;;1.23;;
20230;SDS011;10274;49.022;9.338;2022-08-01T09:17:38;4.45;;;1.45;;
20230;SDS011;10274;49.022;9.338;2022-08-01T09:20:06;1.45;;;1.33;;
20230;SDS011;10274;49.022;9.338;2022-08-01T09:22:34;2.50;;;1.23;;
20230;SDS011;10274;49.022;9.338;2022-08-01T09:25:01;2.83;;;1.52;;
20230;SDS011;10274;49.022;9.338;2022-08-01T09:27:31;1.40;;;1.17;;
20230;SDS011;10274;49.022;9.338;2022-08-01T09:30:09;3.95;;;1.80;;
20230;SDS011;10274;49.022;9.338;2022-08-01T09:32:52;2.75;;;1.40;;
20230;SDS011;10274;49.022;9.338;2022-08-01T09:35:28;2.17;;;1.65;;
20230;SDS011;10274;49.022;9.338;2022-08-01T09:38:16;1.52;;;1.42;;
20230;SDS011;10274;49.022;9.338;2022-08-01T09:40:44;1.50;;;1.40;;
20230;SDS011;10274;49.022;9.338;2022-08-01T09:43:13;2.53;;;1.30;;
20230;SDS011;10274;49.022;9.338;2022-08-01T09:45:40;2.17;;;1.75;;
20230;SDS011;10274;49.022;9.338;2022-08-01T09:48:07;1.38;;;1.27;;
20230;SDS011;10274;49.022;9.338;2022-08-01T09:50:39;2.35;;;1.45;;
20230;SDS011;10274;49.022;9.338;2022-08-01T09:53:06;1.88;;;1.40;;
20230;SDS011;10274;49.022;9.338;2022-08-01T09:55:33;1.98;;;1.30;;
20230;SDS011;10274;49.022;9.338;2022-08-01T09:58:00;2.28;;;1.30;;
20230;SDS011;10274;49.022;9.338;2022-08-01T10:00:31;1.40;;;1.30;;
20230;SDS011;10274;49.022;9.338;2022-08-01T10:02:58;1.75;;;1.42;;
20230;SDS011;10274;49.022;9.338;2022-08-01T10:05:31;1.30;;;1.20;;
20230;SDS011;10274;49.022;9.338;2022-08-01T10:08:01;1.52;;;1.40;;
20230;SDS011;10274;49.022;9.338;2022-08-01T10:10:30;1.75;;;1.48;;
20230;SDS011;10274;49.022;9.338;2022-08-01T10:12:57;2.20;;;1.63;;
20230;SDS011;10274;49.022;9.338;2022-08-01T10:15:25;1.85;;;1.38;;
20230;SDS011;10274;49.022;9.338;2022-08-01T10:17:54;1.65;;;1.55;;
20230;SDS011;10274;49.022;9.338;2022-08-01T10:20:25;1.33;;;1.23;;
20230;SDS011;10274;49.022;9.338;2022-08-01T10:22:53;2.00;;;1.50;;
20230;SDS011;10274;49.022;9.338;2022-08-01T10:25:21;2.45;;;1.65;;
20230;SDS011;10274;49.022;9.338;2022-08-01T10:27:49;1.63;;;1.20;;
20230;SDS011;10274;49.022;9.338;2022-08-01T10:30:20;1.40;;;1.30;;
20230;SDS011;10274;49.022;9.338;2022-08-01T10:32:47;3.35;;;1.20;;
20230;SDS011;10274;49.022;9.338;2022-08-01T10:35:15;1.73;;;1.40;;
20230;SDS011;10274;49.022;9.338;2022-08-01T10:37:44;2.03;;;1.40;;
20230;SDS011;10274;49.022;9.338;2022-08-01T10:40:12;3.42;;;1.30;;
20230;SDS011;10274;49.022;9.338;2022-08-01T10:42:39;1.30;;;1.20;;
20230;SDS011;10274;49.022;9.338;2022-08-01T10:45:08;1.67;;;1.17;;
20230;SDS011;10274;49.022;9.338;2022-08-01T10:47:37;2.67;;;1.20;;
20230;SDS011;10274;49.022;9.338;2022-08-01T10:50:11;1.27;;;1.13;;
20230;SDS011;10274;49.022;9.338;2022-08-01T10:55:48;2.10;;;1.30;;
20230;SDS011;10274;49.022;9.338;2022-08-01T10:58:21;2.15;;;1.30;;
20230;SDS011;10274;49.022;9.338;2022-08-01T11:00:49;3.00;;;1.30;;
20230;SDS011;10274;49.022;9.338;2022-08-01T11:03:39;2.40;;;1.23;;
20230;SDS011;10274;49.022;9.338;2022-08-01T11:06:07;2.50;;;1.40;;
20230;SDS011;10274;49.022;9.338;2022-08-01T11:08:43;1.73;;;1.10;;
20230;SDS011;10274;49.022;9.338;2022-08-01T11:11:18;2.22;;;1.30;;
20230;SDS011;10274;49.022;9.338;2022-08-01T11:14:00;2.05;;;1.25;;
20230;SDS011;10274;49.022;9.338;2022-08-01T11:16:32;1.40;;;1.08;;
20230;SDS011;10274;49.022;9.338;2022-08-01T11:19:00;2.15;;;1.27;;
20230;SDS011;10274;49.022;9.338;2022-08-01T11:27:27;1.67;;;1.30;;
20230;SDS011;10274;49.022;9.338;2022-08-01T11:32:51;1.30;;;1.20;;
20230;SDS011;10274;49.022;9.338;2022-08-01T11:35:20;1.20;;;1.10;;
20230;SDS011;10274;49.022;9.338;2022-08-01T11:37:48;2.47;;;1.15;;
20230;SDS011;10274;49.022;9.338;2022-08-01T11:40:19;1.33;;;1.02;;
20230;SDS011;10274;49.022;9.338;2022-08-01T11:42:48;1.25;;;1.00;;
20230;SDS011;10274;49.022;9.338;2022-08-01T11:45:15;1.27;;;1.17;;
20230;SDS011;10274;49.022;9.338;2022-08-01T11:47:43;1.17;;;1.05;;
20230;SDS011;10274;49.022;9.338;2022-08-01T11:52:57;1.30;;;1.20;;
20230;SDS011;10274;49.022;9.338;2022-08-01T11:55:26;1.55;;;1.10;;
20230;SDS011;10274;49.022;9.338;2022-08-01T11:57:58;2.20;;;1.55;;
20230;SDS011;10274;49.022;9.338;2022-08-01T12:00:26;1.58;;;1.05;;
20230;SDS011;10274;49.022;9.338;2022-08-01T12:02:56;1.20;;;1.10;;
20230;SDS011;10274;49.022;9.338;2022-08-01T12:05:24;1.88;;;1.02;;
20230;SDS011;10274;49.022;9.338;2022-08-01T12:07:52;2.63;;;1.42;;
20230;SDS011;10274;49.022;9.338;2022-08-01T12:10:20;1.42;;;1.30;;
20230;SDS011;10274;49.022;9.338;2022-08-01T12:12:50;1.70;;;1.17;;
20230;SDS011;10274;49.022;9.338;2022-08-01T12:15:19;1.48;;;1.02;;
20230;SDS011;10274;49.022;9.338;2022-08-01T12:17:47;1.95;;;1.10;;
20230;SDS011;10274;49.022;9.338;2022-08-01T12:20:18;1.55;;;1.08;;
20230;SDS011;10274;49.022;9.338;2022-08-01T12:22:46;1.92;;;1.27;;
20230;SDS011;10274;49.022;9.338;2022-08-01T12:25:13;1.90;;;1.23;;
20230;SDS011;10274;49.022;9.338;2022-08-01T12:27:43;1.77;;;1.10;;
20230;SDS011;10274;49.022;9.338;2022-08-01T12:30:13;1.42;;;1.00;;
20230;SDS011;10274;49.022;9.338;2022-08-01T12:32:42;1.60;;;1.10;;
20230;SDS011;10274;49.022;9.338;2022-08-01T12:35:10;2.80;;;1.10;;
20230;SDS011;10274;49.022;9.338;2022-08-01T12:37:39;1.20;;;1.00;;
20230;SDS011;10274;49.022;9.338;2022-08-01T12:40:10;2.08;;;1.15;;
20230;SDS011;10274;49.022;9.338;2022-08-01T12:42:39;0.93;;;0.93;;
20230;SDS011;10274;49.022;9.338;2022-08-01T12:45:07;1.20;;;1.10;;
20230;SDS011;10274;49.022;9.338;2022-08-01T12:47:36;1.20;;;1.10;;
20230;SDS011;10274;49.022;9.338;2022-08-01T12:50:05;2.38;;;1.00;;
20230;SDS011;10274;49.022;9.338;2022-08-01T12:52:33;1.20;;;1.05;;
20230;SDS011;10274;49.022;9.338;2022-08-01T12:55:04;2.95;;;1.30;;
20230;SDS011;10274;49.022;9.338;2022-08-01T12:57:35;1.40;;;1.30;;
20230;SDS011;10274;49.022;9.338;2022-08-01T13:00:13;1.40;;;1.13;;
20230;SDS011;10274;49.022;9.338;2022-08-01T13:02:44;1.00;;;1.00;;
20230;SDS011;10274;49.022;9.338;2022-08-01T13:05:12;2.28;;;1.30;;
20230;SDS011;10274;49.022;9.338;2022-08-01T13:07:43;1.70;;;1.20;;
20230;SDS011;10274;49.022;9.338;2022-08-01T13:10:12;2.90;;;1.10;;
20230;SDS011;10274;49.022;9.338;2022-08-01T13:12:40;2.65;;;1.23;;
20230;SDS011;10274;49.022;9.338;2022-08-01T13:15:23;2.22;;;1.30;;
20230;SDS011;10274;49.022;9.338;2022-08-01T13:17:58;2.63;;;1.17;;
20230;SDS011;10274;49.022;9.338;2022-08-01T13:20:29;1.50;;;1.40;;
20230;SDS011;10274;49.022;9.338;2022-08-01T13:23:11;1.77;;;1.10;;
20230;SDS011;10274;49.022;9.338;2022-08-01T13:25:48;1.33;;;1.20;;
20230;SDS011;10274;49.022;9.338;2022-08-01T13:28:17;3.75;;;1.20;;
20230;SDS011;10274;49.022;9.338;2022-08-01T13:30:52;1.63;;;1.10;;
20230;SDS011;10274;49.022;9.338;2022-08-01T13:33:21;1.92;;;1.25;;
20230;SDS011;10274;49.022;9.338;2022-08-01T13:35:49;1.10;;;1.02;;
20230;SDS011;10274;49.022;9.338;2022-08-01T13:38:16;4.63;;;1.48;;
20230;SDS011;10274;49.022;9.338;2022-08-01T13:40:43;3.78;;;1.40;;
20230;SDS011;10274;49.022;9.338;2022-08-01T13:43:10;1.38;;;0.90;;
20230;SDS011;10274;49.022;9.338;2022-08-01T13:45:36;3.70;;;1.27;;
20230;SDS011;10274;49.022;9.338;2022-08-01T13:48:04;2.45;;;1.20;;
20230;SDS011;10274;49.022;9.338;2022-08-01T13:50:32;2.95;;;1.20;;
20230;SDS011;10274;49.022;9.338;2022-08-01T13:52:59;2.17;;;1.45;;
20230;SDS011;10274;49.022;9.338;2022-08-01T13:55:26;1.20;;;1.10;;
20230;SDS011;10274;49.022;9.338;2022-08-01T13:57:53;1.42;;;1.25;;
20230;SDS011;10274;49.022;9.338;2022-08-01T14:00:19;2.10;;;1.20;;
20230;SDS011;10274;49.022;9.338;2022-08-01T14:02:46;1.75;;;1.33;;
20230;SDS011;10274;49.022;9.338;2022-08-01T14:05:13;2.95;;;1.50;;
20230;SDS011;10274;49.022;9.338;2022-08-01T14:07:41;1.33;;;1.20;;
20230;SDS011;10274;49.022;9.338;2022-08-01T14:10:09;1.98;;;1.30;;
20230;SDS011;10274;49.022;9.338;2022-08-01T14:12:36;2.65;;;1.40;;
20230;SDS011;10274;49.022;9.338;2022-08-01T14:15:03;3.25;;;1.45;;
20230;SDS011;10274;49.022;9.338;2022-08-01T14:17:30;2.30;;;1.20;;
20230;SDS011;10274;49.022;9.338;2022-08-01T14:19:58;1.45;;;1.27;;
20230;SDS011;10274;49.022;9.338;2022-08-01T14:22:25;1.95;;;1.35;;
20230;SDS011;10274;49.022;9.338;2022-08-01T14:24:53;1.40;;;1.30;;
20230;SDS011;10274;49.022;9.338;2022-08-01T14:27:20;2.25;;;1.17;;
20230;SDS011;10274;49.022;9.338;2022-08-01T14:29:47;1.75;;;1.50;;
20230;SDS011;10274;49.022;9.338;2022-08-01T14:32:13;1.50;;;1.30;;
20230;SDS011;10274;49.022;9.338;2022-08-01T14:34:40;2.22;;;1.30;;
20230;SDS011;10274;49.022;9.338;2022-08-01T14:37:07;1.30;;;1.20;;
20230;SDS011;10274;49.022;9.338;2022-08-01T14:39:34;2.97;;;1.50;;
20230;SDS011;10274;49.022;9.338;2022-08-01T14:42:02;2.08;;;1.58;;
20230;SDS011;10274;49.022;9.338;2022-08-01T14:44:29;2.13;;;1.30;;
20230;SDS011;10274;49.022;9.338;2022-08-01T14:46:56;3.25;;;1.60;;
20230;SDS011;10274;49.022;9.338;2022-08-01T14:49:22;1.40;;;1.15;;
20230;SDS011;10274;49.022;9.338;2022-08-01T14:51:49;2.17;;;1.33;;
20230;SDS011;10274;49.022;9.338;2022-08-01T14:54:16;2.53;;;1.02;;
20230;SDS011;10274;49.022;9.338;2022-08-01T14:56:42;1.58;;;1.20;;
20230;SDS011;10274;49.022;9.338;2022-08-01T14:59:10;2.53;;;1.33;;
20230;SDS011;10274;49.022;9.338;2022-08-01T15:01:37;1.40;;;1.30;;
20230;SDS011;10274;49.022;9.338;2022-08-01T15:04:04;1.67;;;1.40;;
20230;SDS011;10274;49.022;9.338;2022-08-01T15:06:31;1.60;;;1.20;;
20230;SDS011;10274;49.022;9.338;2022-08-01T15:08:58;1.13;;;1.02;;
20230;SDS011;10274;49.022;9.338;2022-08-01T15:11:24;3.42;;;1.13;;